createdAt,value
2019-04-23T00:02:23.286Z,9.25
2019-04-23T00:04:28.965Z,9.30
2019-04-23T00:06:43.861Z,9.68
2019-04-23T00:08:52.294Z,10.60
2019-04-23T00:10:42.557Z,9.43
2019-04-23T00:15:04.839Z,10.18
2019-04-23T00:17:04.731Z,10.15
2019-04-23T00:19:02.564Z,10.25
2019-04-23T00:21:43.043Z,9.90
2019-04-23T00:23:53.420Z,10.08
2019-04-23T00:26:02.707Z,10.20
2019-04-23T00:28:16.175Z,10.03
2019-04-23T00:30:15.145Z,10.18
2019-04-23T00:32:23.433Z,9.53
2019-04-23T00:34:24.981Z,9.88
2019-04-23T00:36:32.154Z,10.13
2019-04-23T00:38:38.602Z,9.75
2019-04-23T00:42:47.715Z,10.95
2019-04-23T00:44:52.794Z,10.13
2019-04-23T00:46:54.688Z,10.08
2019-04-23T00:49:05.432Z,10.10
2019-04-23T00:51:01.997Z,10.72
2019-04-23T00:55:29.878Z,10.45
2019-04-23T00:57:29.057Z,10.53
2019-04-23T00:59:28.219Z,10.63
2019-04-23T01:01:47.663Z,10.25
2019-04-23T01:03:47.272Z,10.68
2019-04-23T01:05:59.151Z,10.60
2019-04-23T01:07:50.017Z,10.65
2019-04-23T01:12:06.148Z,10.88
2019-04-23T01:14:14.829Z,10.45
2019-04-23T01:16:17.804Z,11.45
2019-04-23T01:20:44.605Z,10.80
2019-04-23T01:22:27.410Z,10.80
2019-04-23T01:24:44.069Z,10.65
2019-04-23T01:27:51.535Z,10.30
2019-04-23T01:29:45.768Z,10.38
2019-04-23T01:31:48.006Z,10.35
2019-04-23T01:34:07.878Z,10.13
2019-04-23T01:37:57.995Z,9.88
2019-04-23T01:40:09.724Z,10.20
2019-04-23T01:42:22.797Z,11.20
2019-04-23T01:44:23.940Z,10.32
2019-04-23T01:46:21.664Z,10.65
2019-04-23T01:48:30.009Z,9.60
2019-04-23T01:50:37.416Z,10.40
2019-04-23T01:52:50.388Z,10.78
2019-04-23T01:54:45.230Z,9.90
2019-04-23T01:56:49.413Z,10.48
2019-04-23T02:01:00.766Z,10.48
2019-04-23T02:05:19.323Z,9.88
2019-04-23T02:07:23.978Z,9.83
2019-04-23T02:11:28.590Z,9.90
2019-04-23T02:15:36.298Z,9.85
2019-04-23T02:17:48.326Z,10.10
2019-04-23T02:19:51.563Z,9.55
2019-04-23T02:22:03.755Z,9.98
2019-04-23T02:24:15.421Z,10.40
2019-04-23T02:26:15.214Z,10.30
2019-04-23T02:32:55.321Z,10.30
2019-04-23T02:34:51.620Z,10.10
2019-04-23T02:37:03.878Z,11.10
2019-04-23T02:43:15.214Z,10.40
2019-04-23T02:45:09.296Z,10.95
2019-04-23T02:47:34.976Z,10.23
2019-04-23T02:51:29.058Z,10.53
2019-04-23T02:53:53.242Z,10.23
2019-04-23T02:55:45.533Z,10.23
2019-04-23T02:57:47.552Z,10.80
2019-04-23T03:00:07.857Z,10.25
2019-04-23T03:04:10.369Z,9.93
2019-04-23T03:08:06.322Z,10.18
2019-04-23T03:10:15.639Z,9.98
2019-04-23T03:12:29.483Z,10.93
2019-04-23T03:14:23.238Z,9.70
2019-04-23T03:19:15.347Z,10.03
2019-04-23T03:24:09.356Z,9.88
2019-04-23T03:26:25.787Z,10.68
2019-04-23T03:28:23.037Z,9.98
2019-04-23T03:31:21.698Z,10.15
2019-04-23T03:38:48.866Z,10.63
2019-04-23T03:41:04.999Z,10.72
2019-04-23T03:43:01.965Z,10.15
2019-04-23T03:45:07.598Z,10.85
2019-04-23T03:47:10.824Z,10.53
2019-04-23T03:49:14.960Z,10.53
2019-04-23T03:51:22.395Z,10.53
2019-04-23T03:53:32.339Z,10.80
2019-04-23T03:55:37.355Z,10.45
2019-04-23T04:01:46.663Z,10.72
2019-04-23T04:04:22.929Z,10.70
2019-04-23T04:05:56.208Z,9.95
2019-04-23T04:08:06.806Z,10.10
2019-04-23T04:09:59.428Z,10.40
2019-04-23T04:12:17.035Z,10.05
2019-04-23T04:14:32.057Z,9.68
2019-04-23T04:16:19.389Z,10.40
2019-04-23T04:18:40.787Z,10.32
2019-04-23T04:20:53.811Z,10.63
2019-04-23T04:24:44.603Z,9.45
2019-04-23T04:29:00.607Z,10.63
2019-04-23T04:30:53.772Z,9.88
2019-04-23T04:34:39.824Z,9.63
2019-04-23T04:35:22.403Z,9.40
2019-04-23T04:37:58.454Z,9.45
2019-04-23T04:39:43.559Z,9.20
2019-04-23T04:46:14.940Z,9.58
2019-04-23T04:47:53.675Z,10.50
2019-04-23T04:54:14.067Z,9.13
2019-04-23T05:02:53.755Z,10.20
2019-04-23T05:04:52.563Z,13.20
2019-04-23T05:09:02.230Z,8.90
2019-04-23T05:11:07.707Z,9.60
2019-04-23T05:15:17.159Z,8.73
2019-04-23T05:24:00.894Z,8.90
2019-04-23T05:26:01.691Z,8.80
2019-04-23T05:28:07.727Z,10.28
2019-04-23T05:30:15.485Z,9.33
2019-04-23T05:32:15.643Z,9.60
2019-04-23T05:34:14.875Z,11.38
2019-04-23T05:36:29.272Z,9.08
2019-04-23T05:38:42.876Z,8.70
2019-04-23T05:44:50.188Z,9.65
2019-04-23T05:46:52.206Z,9.13
2019-04-23T05:48:59.561Z,9.20
2019-04-23T05:55:13.633Z,9.45
2019-04-23T05:57:13.967Z,9.10
2019-04-23T05:59:23.052Z,8.45
2019-04-23T06:01:49.872Z,8.63
2019-04-23T06:03:41.913Z,8.93
2019-04-23T06:07:51.258Z,9.08
2019-04-23T06:10:02.853Z,8.78
2019-04-23T06:16:19.898Z,8.40
2019-04-23T06:18:24.748Z,9.30
2019-04-23T06:20:27.649Z,9.50
2019-04-23T06:22:38.629Z,9.15
2019-04-23T06:26:54.237Z,9.10
2019-04-23T06:28:40.385Z,8.73
2019-04-23T06:32:52.300Z,8.88
2019-04-23T06:34:56.722Z,9.40
2019-04-23T06:37:03.508Z,8.90
2019-04-23T06:39:13.416Z,8.83
2019-04-23T06:41:16.799Z,8.45
2019-04-23T06:43:24.291Z,9.10
2019-04-23T06:45:29.299Z,8.45
2019-04-23T06:47:28.999Z,8.20
2019-04-23T06:51:52.194Z,7.92
2019-04-23T06:53:49.891Z,7.72
2019-04-23T06:56:02.085Z,8.83
2019-04-23T06:58:08.702Z,8.13
2019-04-23T07:00:10.198Z,8.18
2019-04-23T07:02:17.044Z,7.42
2019-04-23T07:04:17.943Z,7.90
2019-04-23T07:06:29.894Z,8.58
2019-04-23T07:08:42.996Z,7.37
2019-04-23T07:10:44.967Z,8.55
2019-04-23T07:12:44.510Z,8.08
2019-04-23T07:16:46.505Z,8.30
2019-04-23T07:18:57.558Z,7.65
2019-04-23T07:21:06.533Z,8.00
2019-04-23T07:23:13.861Z,7.40
2019-04-23T07:25:15.976Z,7.90
2019-04-23T07:27:20.942Z,7.30
2019-04-23T07:29:27.571Z,7.28
2019-04-23T07:33:41.036Z,7.37
2019-04-23T07:35:49.470Z,7.87
2019-04-23T07:37:59.623Z,8.20
2019-04-23T07:40:24.499Z,7.30
2019-04-23T07:42:32.468Z,7.47
2019-04-23T07:44:59.444Z,7.62
2019-04-23T07:49:17.155Z,7.22
2019-04-23T07:51:19.542Z,6.92
2019-04-23T07:55:43.562Z,7.17
2019-04-23T07:57:40.066Z,6.92
2019-04-23T07:59:50.223Z,7.10
2019-04-23T08:01:49.599Z,7.03
2019-04-23T08:03:55.924Z,7.28
2019-04-23T08:05:59.440Z,6.95
2019-04-23T08:10:14.066Z,7.62
2019-04-23T08:14:13.482Z,6.78
2019-04-23T08:18:40.002Z,6.40
2019-04-23T08:20:42.237Z,6.60
2019-04-23T08:22:48.060Z,6.33
2019-04-23T08:25:27.242Z,6.33
2019-04-23T08:27:43.876Z,6.42
2019-04-23T08:29:44.437Z,6.58
2019-04-23T08:36:12.257Z,6.40
2019-04-23T08:38:20.938Z,7.03
2019-04-23T08:40:25.187Z,6.80
2019-04-23T08:42:39.657Z,6.58
2019-04-23T08:45:00.872Z,6.72
2019-04-23T08:49:03.135Z,6.62
2019-04-23T08:51:21.156Z,7.08
2019-04-23T08:55:31.238Z,6.35
2019-04-23T08:57:21.486Z,6.05
2019-04-23T09:01:33.002Z,5.67
2019-04-23T09:07:59.764Z,6.58
2019-04-23T09:09:58.941Z,6.45
2019-04-23T09:11:59.503Z,5.83
2019-04-23T09:13:59.599Z,6.50
2019-04-23T09:16:09.037Z,6.45
2019-04-23T09:20:31.008Z,6.50
2019-04-23T09:24:33.288Z,6.22
2019-04-23T09:26:41.502Z,6.25
2019-04-23T09:28:51.917Z,6.28
2019-04-23T09:30:57.816Z,6.78
2019-04-23T09:33:14.063Z,5.65
2019-04-23T09:35:20.203Z,6.70
2019-04-23T09:37:37.314Z,6.40
2019-04-23T09:39:49.949Z,6.28
2019-04-23T09:42:09.093Z,6.10
2019-04-23T09:46:44.510Z,6.40
2019-04-23T09:50:57.092Z,7.03
2019-04-23T09:53:12.436Z,5.95
2019-04-23T09:55:16.473Z,7.17
2019-04-23T09:57:12.459Z,7.37
2019-04-23T09:59:25.616Z,7.37
2019-04-23T10:01:27.756Z,6.70
2019-04-23T10:03:21.232Z,7.08
2019-04-23T10:05:21.820Z,6.78
2019-04-23T10:07:27.019Z,6.80
2019-04-23T10:09:22.728Z,6.92
2019-04-23T10:11:28.262Z,6.58
2019-04-23T10:13:32.119Z,7.90
2019-04-23T10:15:40.398Z,6.50
2019-04-23T10:17:42.402Z,7.12
2019-04-23T10:19:46.665Z,7.05
2019-04-23T10:21:51.352Z,6.83
2019-04-23T10:23:55.188Z,6.78
2019-04-23T10:25:58.927Z,7.28
2019-04-23T10:28:07.260Z,6.83
2019-04-23T10:30:10.164Z,6.97
2019-04-23T10:32:15.617Z,6.92
2019-04-23T10:34:21.041Z,6.67
2019-04-23T10:36:27.701Z,6.62
2019-04-23T10:38:32.285Z,6.97
2019-04-23T10:40:38.755Z,6.70
2019-04-23T10:42:44.647Z,6.60
2019-04-23T10:45:17.430Z,6.42
2019-04-23T10:48:21.726Z,7.30
2019-04-23T10:50:40.641Z,6.53
2019-04-23T10:52:37.549Z,6.28
2019-04-23T10:54:45.143Z,5.70
2019-04-23T10:59:01.564Z,6.67
2019-04-23T11:01:04.482Z,6.58
2019-04-23T11:03:25.390Z,6.37
2019-04-23T11:05:15.922Z,6.28
2019-04-23T11:07:29.862Z,6.20
2019-04-23T11:09:45.258Z,6.33
2019-04-23T11:11:27.629Z,6.08
2019-04-23T11:13:38.375Z,6.33
2019-04-23T11:22:21.008Z,5.45
2019-04-23T11:24:19.025Z,6.70
2019-04-23T11:26:15.619Z,6.50
2019-04-23T11:28:22.812Z,6.87
2019-04-23T11:30:36.172Z,7.03
2019-04-23T11:34:56.982Z,6.22
2019-04-23T11:36:58.001Z,6.30
2019-04-23T11:40:41.839Z,6.35
2019-04-23T11:43:14.292Z,6.25
2019-04-23T11:45:06.319Z,6.55
2019-04-23T11:47:17.288Z,6.40
2019-04-23T11:49:26.664Z,6.60
2019-04-23T11:51:47.530Z,6.53
2019-04-23T11:53:26.017Z,6.95
2019-04-23T11:55:39.847Z,7.22
2019-04-23T11:57:59.314Z,5.90
2019-04-23T12:02:01.161Z,6.37
2019-04-23T12:04:53.237Z,6.10
2019-04-23T12:09:35.263Z,6.72
2019-04-23T12:14:16.586Z,6.60
2019-04-23T12:16:10.535Z,5.50
2019-04-23T12:18:18.037Z,6.53
2019-04-23T12:20:21.256Z,6.10
2019-04-23T12:24:56.807Z,6.17
2019-04-23T12:28:43.895Z,6.92
2019-04-23T12:30:50.577Z,6.92
2019-04-23T12:37:04.167Z,6.70
2019-04-23T12:39:23.884Z,5.92
2019-04-23T12:41:13.269Z,6.20
2019-04-23T12:43:19.163Z,6.42
2019-04-23T12:51:43.343Z,5.83
2019-04-23T12:54:07.006Z,6.35
2019-04-23T12:55:50.476Z,5.97
2019-04-23T12:58:01.645Z,5.78
2019-04-23T13:00:05.071Z,6.65
2019-04-23T13:02:22.717Z,5.95
2019-04-23T13:04:20.061Z,5.92
2019-04-23T13:06:20.635Z,6.72
2019-04-23T13:08:33.745Z,6.28
2019-04-23T13:10:32.296Z,6.87
2019-04-23T13:17:04.212Z,7.72
2019-04-23T13:18:58.069Z,6.17
2019-04-23T13:21:15.851Z,5.78
2019-04-23T13:25:45.725Z,7.05
2019-04-23T13:30:00.363Z,6.37
2019-04-23T13:32:04.383Z,6.15
2019-04-23T13:34:07.091Z,6.45
2019-04-23T13:36:19.134Z,6.70
2019-04-23T13:38:28.562Z,6.28
2019-04-23T13:40:30.478Z,6.30
2019-04-23T13:42:40.363Z,6.47
2019-04-23T13:44:42.662Z,6.30
2019-04-23T13:46:34.438Z,6.35
2019-04-23T13:48:42.142Z,6.28
2019-04-23T13:51:00.238Z,5.92
2019-04-23T13:59:21.875Z,6.58
2019-04-23T14:01:29.013Z,6.37
2019-04-23T14:06:05.523Z,6.60
2019-04-23T14:08:13.237Z,6.17
2019-04-23T14:12:20.346Z,6.58
2019-04-23T14:14:28.261Z,6.95
2019-04-23T14:20:38.660Z,7.70
2019-04-23T14:27:01.144Z,7.80
2019-04-23T14:29:02.064Z,6.92
2019-04-23T14:31:07.780Z,7.37
2019-04-23T14:33:17.703Z,7.35
2019-04-23T14:35:32.510Z,6.90
2019-04-23T14:37:21.640Z,7.30
2019-04-23T14:39:37.311Z,7.25
2019-04-23T14:41:26.398Z,7.80
2019-04-23T14:48:05.832Z,7.17
2019-04-23T14:50:23.583Z,7.12
2019-04-23T14:52:14.593Z,7.33
2019-04-23T14:54:24.805Z,7.45
2019-04-23T14:56:20.087Z,7.35
2019-04-23T14:58:34.269Z,7.10
2019-04-23T15:00:43.510Z,7.50
2019-04-23T15:02:52.137Z,6.90
2019-04-23T15:04:51.159Z,6.72
2019-04-23T15:11:24.325Z,7.30
2019-04-23T15:13:18.742Z,7.42
2019-04-23T15:21:53.854Z,7.65
2019-04-23T15:24:00.271Z,7.80
2019-04-23T15:26:39.507Z,7.80
2019-04-23T15:28:06.545Z,7.58
2019-04-23T15:29:51.115Z,7.50
2019-04-23T15:32:16.540Z,7.47
2019-04-23T15:34:18.992Z,7.67
2019-04-23T15:36:38.873Z,7.33
2019-04-23T15:40:36.734Z,7.80
2019-04-23T15:44:48.503Z,7.47
2019-04-23T15:46:56.552Z,7.35
2019-04-23T15:49:07.144Z,7.42
2019-04-23T15:51:13.022Z,8.05
2019-04-23T15:53:04.701Z,8.13
2019-04-23T15:55:15.070Z,8.08
2019-04-23T15:57:41.694Z,7.45
2019-04-23T15:59:35.010Z,8.10
2019-04-23T16:01:35.082Z,8.73
2019-04-23T16:03:14.930Z,8.70
2019-04-23T16:05:21.169Z,8.30
2019-04-23T16:07:42.685Z,8.78
2019-04-23T16:10:04.189Z,8.60
2019-04-23T16:11:59.466Z,8.65
2019-04-23T16:14:22.735Z,7.87
2019-04-23T16:16:26.004Z,8.23
2019-04-23T16:18:43.697Z,7.92
2019-04-23T16:20:58.593Z,7.75
2019-04-23T16:22:44.541Z,8.25
2019-04-23T16:27:09.297Z,8.70
2019-04-23T16:29:38.058Z,8.90
2019-04-23T16:31:27.640Z,10.18
2019-04-23T16:33:18.689Z,10.65
2019-04-23T16:36:05.605Z,9.58
2019-04-23T16:38:23.171Z,8.38
2019-04-23T16:40:10.331Z,8.55
2019-04-23T16:42:17.675Z,9.00
2019-04-23T16:44:21.891Z,8.70
2019-04-23T16:46:48.517Z,8.63
2019-04-23T16:50:57.812Z,8.85
2019-04-23T16:52:49.312Z,8.55
2019-04-23T16:57:17.902Z,9.90
2019-04-23T17:01:08.558Z,9.10
2019-04-23T17:05:23.732Z,9.50
2019-04-23T17:07:20.311Z,9.08
2019-04-23T17:09:38.519Z,9.58
2019-04-23T17:11:34.275Z,9.93
2019-04-23T17:13:38.017Z,9.08
2019-04-23T17:17:55.745Z,9.75
2019-04-23T17:22:03.995Z,9.70
2019-04-23T17:24:21.162Z,9.68
2019-04-23T17:28:29.546Z,12.00
2019-04-23T17:30:37.806Z,9.10
2019-04-23T17:32:44.894Z,10.10
2019-04-23T17:35:04.835Z,9.48
2019-04-23T17:37:17.697Z,9.73
2019-04-23T17:39:18.204Z,10.23
2019-04-23T17:41:59.662Z,9.60
2019-04-23T17:44:02.940Z,9.93
2019-04-23T17:45:53.868Z,11.08
2019-04-23T17:48:18.753Z,10.60
2019-04-23T17:52:35.606Z,9.83
2019-04-23T18:01:10.969Z,10.68
2019-04-23T18:03:04.556Z,9.98
2019-04-23T18:05:12.851Z,10.45
2019-04-23T18:07:32.247Z,10.30
2019-04-23T18:11:44.918Z,10.18
2019-04-23T18:13:45.677Z,10.30
2019-04-23T18:15:45.911Z,10.78
2019-04-23T18:17:55.544Z,10.15
2019-04-23T18:20:29.973Z,10.30
2019-04-23T18:22:47.167Z,10.38
2019-04-23T18:25:05.870Z,10.15
2019-04-23T18:29:42.152Z,10.43
2019-04-23T18:31:31.864Z,10.18
2019-04-23T18:35:38.986Z,10.82
2019-04-23T18:37:52.398Z,10.90
2019-04-23T18:39:54.591Z,10.68
2019-04-23T18:42:11.595Z,10.32
2019-04-23T18:44:13.456Z,11.03
2019-04-23T18:50:46.788Z,10.88
2019-04-23T18:54:48.822Z,10.60
2019-04-23T18:57:03.358Z,10.48
2019-04-23T18:59:00.502Z,11.28
2019-04-23T19:01:10.694Z,11.03
2019-04-23T19:03:21.779Z,11.53
2019-04-23T19:08:03.060Z,11.65
2019-04-23T19:10:31.662Z,11.35
2019-04-23T19:12:38.305Z,11.00
2019-04-23T19:14:56.449Z,10.78
2019-04-23T19:17:06.672Z,10.35
2019-04-23T19:23:11.310Z,11.10
2019-04-23T19:25:14.198Z,10.80
2019-04-23T19:27:19.519Z,10.63
2019-04-23T19:29:36.385Z,11.12
2019-04-23T19:31:46.262Z,11.20
2019-04-23T19:33:49.220Z,11.48
2019-04-23T19:36:03.569Z,10.93
2019-04-23T19:37:59.586Z,11.12
2019-04-23T19:39:55.115Z,11.38
2019-04-23T19:44:12.885Z,11.57
2019-04-23T19:48:25.291Z,10.82
2019-04-23T19:50:36.833Z,11.65
2019-04-23T19:52:52.731Z,11.00
2019-04-23T19:56:51.808Z,11.28
2019-04-23T19:58:51.658Z,11.25
2019-04-23T20:03:22.262Z,11.63
2019-04-23T20:05:07.131Z,10.82
2019-04-23T20:07:25.407Z,11.55
2019-04-23T20:09:38.403Z,11.38
2019-04-23T20:11:35.002Z,13.70
2019-04-23T20:13:49.860Z,11.35
2019-04-23T20:15:57.763Z,11.30
2019-04-23T20:24:13.451Z,11.88
2019-04-23T20:31:13.971Z,11.55
2019-04-23T20:37:31.238Z,12.25
2019-04-23T20:39:32.719Z,11.88
2019-04-23T20:42:02.340Z,11.63
2019-04-23T20:44:01.897Z,12.07
2019-04-23T20:46:11.340Z,12.03
2019-04-23T20:48:08.781Z,12.10
2019-04-23T20:50:05.398Z,11.40
2019-04-23T20:52:10.567Z,11.88
2019-04-23T20:54:36.192Z,12.43
2019-04-23T20:56:37.037Z,12.68
2019-04-23T20:58:47.922Z,12.50
2019-04-23T21:01:11.238Z,12.68
2019-04-23T21:03:25.668Z,12.43
2019-04-23T21:07:30.545Z,12.05
2019-04-23T21:11:40.656Z,11.55
2019-04-23T21:15:45.992Z,12.03
2019-04-23T21:17:58.205Z,12.15
2019-04-23T21:20:10.168Z,11.68
2019-04-23T21:22:14.083Z,12.10
2019-04-23T21:24:10.869Z,13.25
2019-04-23T21:26:08.181Z,11.73
2019-04-23T21:30:57.982Z,12.23
2019-04-23T21:35:02.623Z,11.88
2019-04-23T21:36:58.486Z,12.03
2019-04-23T21:39:34.361Z,12.28
2019-04-23T21:41:51.990Z,12.55
2019-04-23T21:45:56.893Z,12.28
2019-04-23T21:50:14.114Z,11.88
2019-04-23T21:54:21.111Z,11.70
2019-04-23T21:56:23.306Z,11.90
2019-04-23T21:58:38.915Z,12.28
2019-04-23T22:00:44.447Z,11.90
2019-04-23T22:03:03.704Z,11.80
2019-04-23T22:06:52.894Z,11.75
2019-04-23T22:11:24.994Z,11.75
2019-04-23T22:15:26.486Z,11.50
2019-04-23T22:17:28.870Z,10.78
2019-04-23T22:19:36.563Z,11.40
2019-04-23T22:21:47.284Z,11.30
2019-04-23T22:23:53.035Z,11.68
2019-04-23T22:26:03.444Z,11.20
2019-04-23T22:27:54.892Z,10.85
2019-04-23T22:30:01.244Z,11.45
2019-04-23T22:31:58.146Z,10.60
2019-04-23T22:36:15.041Z,10.65
2019-04-23T22:40:24.222Z,11.40
2019-04-23T22:44:51.566Z,10.63
2019-04-23T22:46:58.686Z,11.35
2019-04-23T22:51:11.121Z,10.63
2019-04-23T22:53:08.726Z,10.78
2019-04-23T22:55:15.436Z,10.25
2019-04-23T22:57:11.604Z,9.73
2019-04-23T23:01:50.451Z,10.85
2019-04-23T23:03:43.773Z,10.60
2019-04-23T23:10:19.983Z,10.70
2019-04-23T23:12:14.555Z,10.63
2019-04-23T23:14:27.547Z,10.53
2019-04-23T23:16:23.323Z,10.63
2019-04-23T23:18:22.712Z,10.20
2019-04-23T23:20:36.067Z,10.18
2019-04-23T23:22:51.496Z,10.80
2019-04-23T23:24:46.065Z,10.95
2019-04-23T23:26:54.516Z,9.80
2019-04-23T23:28:58.305Z,10.40
2019-04-23T23:31:06.954Z,9.78
2019-04-23T23:35:24.510Z,9.48
2019-04-23T23:37:12.019Z,9.95
2019-04-23T23:39:28.938Z,9.90
2019-04-23T23:41:28.678Z,9.63
2019-04-23T23:43:31.648Z,9.53
2019-04-23T23:45:48.708Z,9.23
2019-04-23T23:47:43.131Z,9.35
2019-04-23T23:49:54.998Z,9.20
2019-04-23T23:52:02.828Z,9.53
2019-04-23T23:54:03.457Z,9.73
2019-04-23T23:58:23.048Z,9.25
